createdAt,value
2023-02-08T09:36:31.407Z,35.53
2023-02-08T09:39:03.082Z,34.30
2023-02-08T09:41:58.954Z,39.95
2023-02-08T09:50:59.703Z,39.53
2023-02-08T09:53:36.767Z,35.33
2023-02-08T11:43:12.944Z,42.65
2023-02-08T11:50:21.030Z,28.67
2023-02-08T12:57:00.365Z,18.08
2023-02-08T15:16:58.051Z,21.30
2023-02-08T15:19:27.011Z,24.52
2023-02-08T15:21:54.314Z,23.35
2023-02-08T15:27:34.612Z,18.73
2023-02-08T16:25:26.697Z,28.70
2023-02-08T16:28:06.561Z,31.60
2023-02-08T16:31:16.369Z,25.42
2023-02-08T16:34:02.380Z,27.00
2023-02-08T16:36:32.570Z,27.48
2023-02-08T16:39:20.010Z,29.17
2023-02-08T16:45:14.586Z,30.08
2023-02-08T16:47:46.656Z,36.38
2023-02-08T16:53:05.546Z,34.78
2023-02-08T16:56:23.032Z,32.95
2023-02-08T16:58:28.762Z,34.70
2023-02-08T17:01:04.893Z,39.30
2023-02-08T17:06:29.593Z,37.58
2023-02-08T17:08:57.278Z,31.77
2023-02-08T17:11:29.415Z,34.85
2023-02-08T17:14:32.559Z,34.90
2023-02-08T17:16:59.799Z,41.45
2023-02-08T17:19:32.735Z,41.08
2023-02-08T17:22:17.998Z,38.20
2023-02-08T17:24:47.208Z,35.80
2023-02-08T17:30:05.150Z,43.70
2023-02-08T17:32:37.807Z,51.50
2023-02-08T17:35:49.122Z,43.55
2023-02-08T17:38:16.829Z,45.00
2023-02-08T17:40:50.288Z,39.53
2023-02-08T17:43:25.934Z,44.28
2023-02-08T17:45:57.912Z,42.50
2023-02-08T17:48:26.006Z,42.90
2023-02-08T17:51:11.798Z,38.35
2023-02-08T17:53:45.307Z,42.05
2023-02-08T18:00:06.241Z,49.67
2023-02-08T18:02:36.933Z,46.67
2023-02-08T18:11:23.347Z,52.78
2023-02-08T18:13:56.936Z,42.95
2023-02-08T18:26:04.171Z,53.95
2023-02-08T18:31:24.063Z,50.75
2023-02-08T18:33:51.529Z,51.95
2023-02-08T18:36:29.416Z,56.10
2023-02-08T18:38:57.061Z,45.28
2023-02-08T18:41:26.957Z,51.40
2023-02-08T19:38:01.292Z,49.00
2023-02-08T19:54:17.713Z,60.55
2023-02-08T19:56:43.582Z,53.75
2023-02-08T19:59:42.837Z,57.35
2023-02-08T20:02:15.691Z,54.72
2023-02-08T20:04:42.656Z,59.95
2023-02-08T20:07:21.633Z,53.75
2023-02-08T20:09:48.741Z,55.35
2023-02-08T20:12:16.940Z,59.67
2023-02-08T20:14:57.591Z,60.13
2023-02-08T20:19:52.755Z,55.95
2023-02-08T20:22:19.359Z,59.58
2023-02-08T20:24:48.705Z,52.35
2023-02-08T20:27:15.299Z,61.50
2023-02-08T20:29:47.161Z,51.78
2023-02-08T20:32:13.832Z,60.03
2023-02-08T20:34:47.444Z,57.75
2023-02-08T20:37:22.947Z,50.95
2023-02-08T20:39:52.058Z,58.65
2023-02-08T20:42:18.469Z,60.70
2023-02-08T20:44:50.475Z,54.92
2023-02-08T20:47:21.687Z,59.33
2023-02-08T20:49:48.754Z,58.90
2023-02-08T20:52:15.918Z,67.57
2023-02-08T20:54:47.022Z,55.10
2023-02-08T20:57:24.408Z,65.15
2023-02-08T21:02:31.950Z,52.38
2023-02-08T21:04:58.490Z,54.88
2023-02-08T21:07:27.661Z,56.58
2023-02-08T21:09:58.391Z,51.13
2023-02-08T21:12:26.163Z,49.00
2023-02-08T21:14:52.898Z,63.17
2023-02-08T21:17:19.500Z,61.53
2023-02-08T21:19:50.348Z,59.22
2023-02-08T21:22:17.193Z,53.78
2023-02-08T21:24:43.730Z,48.75
2023-02-08T21:27:10.352Z,49.10
2023-02-08T21:29:47.412Z,46.58
2023-02-08T21:32:13.904Z,66.00
2023-02-08T21:34:51.299Z,52.53
2023-02-08T21:37:17.879Z,47.65
2023-02-08T21:39:46.514Z,61.08
2023-02-08T21:42:26.194Z,52.55
2023-02-08T21:44:58.663Z,66.20
2023-02-08T21:47:26.278Z,62.05
2023-02-08T21:50:11.135Z,61.10
2023-02-08T21:52:56.336Z,53.85
2023-02-08T21:55:22.832Z,63.42
2023-02-08T21:57:52.626Z,61.58
2023-02-08T22:00:22.186Z,62.42
2023-02-08T22:02:48.634Z,60.27
2023-02-08T22:05:37.082Z,53.45
2023-02-08T22:08:03.920Z,58.42
2023-02-08T22:10:31.648Z,58.58
2023-02-08T22:12:58.285Z,63.47
2023-02-08T22:15:30.611Z,55.83
2023-02-08T22:18:00.562Z,63.05
2023-02-08T22:20:27.027Z,58.33
2023-02-08T22:22:55.253Z,48.00
2023-02-08T22:25:25.202Z,48.72
2023-02-08T22:27:52.078Z,48.67
2023-02-08T22:30:19.952Z,47.03
2023-02-08T22:32:48.028Z,44.50
2023-02-08T22:35:15.562Z,43.58
2023-02-08T22:37:41.998Z,41.53
2023-02-08T22:40:09.733Z,46.97
2023-02-08T22:42:36.290Z,46.17
2023-02-08T22:45:02.755Z,46.05
2023-02-08T22:47:29.219Z,53.63
2023-02-08T22:50:00.838Z,45.03
2023-02-08T22:52:27.535Z,40.35
2023-02-08T22:54:53.988Z,47.20
2023-02-08T22:57:20.500Z,37.28
2023-02-08T22:59:47.697Z,57.65
2023-02-08T23:02:17.206Z,47.10
2023-02-08T23:04:43.634Z,44.17
2023-02-08T23:07:10.167Z,48.15
2023-02-08T23:09:36.637Z,39.28
2023-02-08T23:12:03.195Z,42.15
2023-02-08T23:14:39.823Z,41.75
2023-02-08T23:17:08.221Z,38.05
2023-02-08T23:19:35.786Z,40.15
2023-02-08T23:22:03.507Z,34.05
2023-02-08T23:24:29.977Z,37.55
2023-02-08T23:26:56.499Z,42.25
2023-02-08T23:29:22.947Z,34.15
2023-02-08T23:31:49.611Z,42.05
2023-02-08T23:34:16.174Z,38.53
2023-02-08T23:36:42.674Z,36.38
2023-02-08T23:39:09.144Z,32.13
2023-02-08T23:41:35.725Z,35.63
2023-02-08T23:44:02.290Z,38.55
2023-02-08T23:46:29.419Z,34.13
2023-02-08T23:48:55.904Z,39.75
2023-02-08T23:51:23.542Z,33.95
2023-02-08T23:53:50.404Z,32.53
2023-02-08T23:56:20.013Z,46.92
2023-02-08T23:58:47.769Z,30.20
